createdAt,value
2019-01-20T00:00:24.951Z,-3.78
2019-01-20T00:05:22.053Z,-3.78
2019-01-20T00:10:19.205Z,-3.67
2019-01-20T00:15:18.318Z,-3.67
2019-01-20T00:20:15.804Z,-3.73
2019-01-20T00:25:13.049Z,-3.69
2019-01-20T00:30:13.524Z,-3.88
2019-01-20T00:35:10.525Z,-3.90
2019-01-20T00:40:12.474Z,-4.00
2019-01-20T00:45:17.084Z,-4.23
2019-01-20T00:50:15.808Z,-4.50
2019-01-20T00:55:15.683Z,-4.61
2019-01-20T01:00:28.508Z,-4.49
2019-01-20T01:05:26.240Z,-4.46
2019-01-20T01:10:23.886Z,-4.52
2019-01-20T01:15:20.796Z,-4.42
2019-01-20T01:20:19.285Z,-4.74
2019-01-20T01:25:16.797Z,-4.73
2019-01-20T01:30:17.681Z,-4.65
2019-01-20T01:35:14.675Z,-4.48
2019-01-20T01:40:15.102Z,-4.33
2019-01-20T01:45:15.714Z,-4.19
2019-01-20T01:50:14.373Z,-4.28
2019-01-20T01:55:32.868Z,-3.99
2019-01-20T02:00:29.778Z,-4.12
2019-01-20T02:05:26.766Z,-4.13
2019-01-20T02:10:23.657Z,-4.10
2019-01-20T02:15:21.321Z,-4.07
2019-01-20T02:20:22.180Z,-4.00
2019-01-20T02:25:19.533Z,-3.98
2019-01-20T02:30:20.244Z,-3.94
2019-01-20T02:35:17.195Z,-3.78
2019-01-20T02:40:16.096Z,-3.66
2019-01-20T02:45:14.739Z,-3.58
2019-01-20T02:50:17.430Z,-3.94
2019-01-20T02:55:14.737Z,-3.96
2019-01-20T03:00:19.154Z,-3.82
2019-01-20T03:05:17.761Z,-4.13
2019-01-20T03:10:15.036Z,-4.21
2019-01-20T03:15:13.647Z,-4.12
2019-01-20T03:20:15.510Z,-4.23
2019-01-20T03:25:15.053Z,-4.00
2019-01-20T03:30:15.591Z,-3.79
2019-01-20T03:35:14.708Z,-4.11
2019-01-20T03:40:15.969Z,-4.28
2019-01-20T03:45:15.382Z,-4.30
2019-01-20T03:50:15.122Z,-4.26
2019-01-20T03:55:15.111Z,-4.30
2019-01-20T04:00:23.113Z,-4.26
2019-01-20T04:05:20.034Z,-4.18
2019-01-20T04:10:16.972Z,-4.26
2019-01-20T04:15:15.086Z,-4.19
2019-01-20T04:20:14.448Z,-4.11
2019-01-20T04:25:17.588Z,-4.01
2019-01-20T04:30:17.752Z,-3.84
2019-01-20T04:35:14.667Z,-3.78
2019-01-20T04:40:16.528Z,-3.72
2019-01-20T04:45:14.044Z,-3.70
2019-01-20T04:50:15.797Z,-3.67
2019-01-20T04:55:14.108Z,-3.63
2019-01-20T05:00:15.362Z,-3.57
2019-01-20T05:05:12.355Z,-3.60
2019-01-20T05:10:12.612Z,-3.64
2019-01-20T05:15:13.736Z,-3.66
2019-01-20T05:20:11.468Z,-3.60
2019-01-20T05:25:10.077Z,-3.53
2019-01-20T05:30:14.485Z,-3.57
2019-01-20T05:35:11.603Z,-3.59
2019-01-20T05:40:14.696Z,-3.47
2019-01-20T05:45:15.499Z,-3.39
2019-01-20T05:50:13.453Z,-3.30
2019-01-20T05:55:14.646Z,-3.33
2019-01-20T06:00:22.502Z,-3.13
2019-01-20T06:05:19.408Z,-3.13
2019-01-20T06:10:16.356Z,-2.94
2019-01-20T06:15:19.001Z,-2.97
2019-01-20T06:20:17.710Z,-3.12
2019-01-20T06:25:14.931Z,-3.20
2019-01-20T06:30:24.926Z,-3.44
2019-01-20T06:35:21.955Z,-3.46
2019-01-20T06:40:18.905Z,-3.19
2019-01-20T06:45:15.783Z,-3.31
2019-01-20T06:50:18.447Z,-3.26
2019-01-20T06:55:15.542Z,-2.97
2019-01-20T07:00:21.659Z,-2.96
2019-01-20T07:05:18.544Z,-2.83
2019-01-20T07:10:17.390Z,-2.67
2019-01-20T07:15:18.120Z,-2.41
2019-01-20T07:20:15.065Z,-2.29
2019-01-20T07:25:12.428Z,-2.24
2019-01-20T07:30:18.939Z,-2.01
2019-01-20T07:35:16.442Z,-1.83
2019-01-20T07:40:17.108Z,-1.68
2019-01-20T07:45:15.812Z,-1.46
2019-01-20T07:50:17.275Z,-1.19
2019-01-20T07:55:14.194Z,-1.22
2019-01-20T08:00:18.601Z,-1.10
2019-01-20T08:05:16.406Z,-1.23
2019-01-20T08:10:17.169Z,-1.01
2019-01-20T08:15:15.679Z,-0.90
2019-01-20T08:20:18.278Z,-0.49
2019-01-20T08:25:19.176Z,-0.24
2019-01-20T08:30:24.754Z,-0.03
2019-01-20T08:35:21.874Z,0.25
2019-01-20T08:40:27.761Z,0.34
2019-01-20T08:45:38.676Z,0.78
2019-01-20T08:50:35.584Z,1.31
2019-01-20T08:55:32.563Z,1.71
2019-01-20T09:00:31.426Z,2.05
2019-01-20T09:05:28.310Z,1.91
2019-01-20T09:10:25.434Z,1.81
2019-01-20T09:15:22.376Z,1.58
2019-01-20T09:20:19.301Z,1.19
2019-01-20T09:25:16.447Z,1.10
2019-01-20T09:30:20.158Z,1.16
2019-01-20T09:35:17.766Z,1.87
2019-01-20T09:40:16.746Z,2.13
2019-01-20T09:45:28.007Z,2.68
2019-01-20T09:50:24.926Z,2.94
2019-01-20T09:55:21.978Z,3.35
2019-01-20T10:00:29.099Z,3.50
2019-01-20T10:05:26.070Z,3.61
2019-01-20T10:10:25.401Z,3.85
2019-01-20T10:15:22.447Z,4.08
2019-01-20T10:20:28.444Z,3.95
2019-01-20T10:25:25.350Z,4.00
2019-01-20T10:30:32.011Z,4.18
2019-01-20T10:35:36.009Z,4.33
2019-01-20T10:40:33.043Z,4.38
2019-01-20T10:45:29.998Z,4.29
2019-01-20T10:50:26.994Z,4.46
2019-01-20T10:55:23.958Z,3.65
2019-01-20T11:00:37.026Z,3.36
2019-01-20T11:05:34.071Z,3.61
2019-01-20T11:10:31.021Z,3.29
2019-01-20T11:15:27.944Z,3.12
2019-01-20T11:20:24.921Z,2.99
2019-01-20T11:25:26.556Z,3.06
2019-01-20T11:30:23.468Z,3.03
2019-01-20T11:35:20.531Z,3.04
2019-01-20T11:40:17.623Z,3.31
2019-01-20T11:45:26.621Z,3.34
2019-01-20T11:50:23.876Z,3.21
2019-01-20T11:55:24.998Z,3.34
2019-01-20T12:00:31.452Z,3.41
2019-01-20T12:05:30.178Z,3.83
2019-01-20T12:10:27.126Z,3.93
2019-01-20T12:15:24.095Z,4.09
2019-01-20T12:20:21.019Z,4.15
2019-01-20T12:25:19.623Z,4.27
2019-01-20T12:30:24.777Z,4.31
2019-01-20T12:35:21.915Z,4.49
2019-01-20T12:40:27.259Z,4.52
2019-01-20T12:45:24.296Z,4.18
2019-01-20T12:50:21.518Z,4.05
2019-01-20T12:55:18.479Z,4.05
2019-01-20T13:00:19.099Z,4.18
2019-01-20T13:05:18.325Z,4.29
2019-01-20T13:10:19.630Z,4.25
2019-01-20T13:15:44.665Z,4.09
2019-01-20T13:20:41.651Z,4.05
2019-01-20T13:25:38.608Z,3.65
2019-01-20T13:30:35.596Z,3.75
2019-01-20T13:35:32.587Z,3.57
2019-01-20T13:40:47.647Z,3.46
2019-01-20T13:45:46.774Z,3.60
2019-01-20T13:50:43.695Z,3.62
2019-01-20T13:55:40.682Z,3.52
2019-01-20T14:00:37.624Z,3.61
2019-01-20T14:05:34.612Z,3.68
2019-01-20T14:10:31.793Z,3.79
2019-01-20T14:15:29.803Z,3.59
2019-01-20T14:20:26.715Z,3.30
2019-01-20T14:25:29.740Z,3.10
2019-01-20T14:30:31.549Z,3.01
2019-01-20T14:35:28.537Z,3.16
2019-01-20T14:40:25.458Z,3.23
2019-01-20T14:45:22.945Z,3.21
2019-01-20T14:50:26.928Z,2.98
2019-01-20T14:55:24.484Z,2.69
2019-01-20T15:00:32.142Z,2.38
2019-01-20T15:05:29.095Z,2.25
2019-01-20T15:10:26.038Z,2.35
2019-01-20T15:15:38.604Z,2.41
2019-01-20T15:20:35.544Z,2.58
2019-01-20T15:25:32.506Z,2.66
2019-01-20T15:30:31.398Z,2.76
2019-01-20T15:35:28.453Z,2.47
2019-01-20T15:40:25.450Z,2.66
2019-01-20T15:45:23.863Z,2.79
2019-01-20T15:50:24.873Z,2.85
2019-01-20T15:55:21.816Z,2.29
2019-01-20T16:00:25.608Z,2.07
2019-01-20T16:05:23.966Z,1.85
2019-01-20T16:10:21.209Z,1.57
2019-01-20T16:15:24.620Z,1.43
2019-01-20T16:20:20.720Z,1.57
2019-01-20T16:25:27.136Z,1.63
2019-01-20T16:30:28.390Z,1.82
2019-01-20T16:35:25.597Z,1.71
2019-01-20T16:40:24.145Z,1.63
2019-01-20T16:45:32.839Z,1.46
2019-01-20T16:50:27.325Z,1.72
2019-01-20T16:55:24.242Z,1.66
2019-01-20T17:00:27.431Z,1.76
2019-01-20T17:05:26.818Z,1.70
2019-01-20T17:10:27.139Z,1.58
2019-01-20T17:15:30.510Z,1.58
2019-01-20T17:20:27.429Z,1.65
2019-01-20T17:25:24.433Z,1.70
2019-01-20T17:30:35.689Z,1.77
2019-01-20T17:35:32.617Z,1.75
2019-01-20T17:40:29.952Z,1.44
2019-01-20T17:45:35.974Z,1.15
2019-01-20T17:50:36.985Z,1.01
2019-01-20T17:55:33.984Z,1.06
2019-01-20T18:00:37.496Z,0.86
2019-01-20T18:05:36.351Z,0.91
2019-01-20T18:10:33.644Z,0.78
2019-01-20T18:15:30.605Z,0.67
2019-01-20T18:20:30.704Z,0.64
2019-01-20T18:25:27.713Z,0.62
2019-01-20T18:30:29.993Z,0.72
2019-01-20T18:35:27.532Z,0.68
2019-01-20T18:40:26.100Z,0.70
2019-01-20T18:45:32.317Z,0.65
2019-01-20T18:50:32.889Z,0.64
2019-01-20T18:55:29.929Z,0.45
2019-01-20T19:00:40.221Z,0.60
2019-01-20T19:05:37.256Z,0.59
2019-01-20T19:10:34.188Z,0.32
2019-01-20T19:15:31.136Z,0.49
2019-01-20T19:20:28.113Z,0.55
2019-01-20T19:25:25.035Z,0.75
2019-01-20T19:30:27.077Z,0.57
2019-01-20T19:35:24.602Z,0.49
2019-01-20T19:40:21.565Z,0.43
2019-01-20T19:45:20.168Z,0.37
2019-01-20T19:50:18.047Z,0.38
2019-01-20T19:55:29.888Z,0.43
2019-01-20T20:00:31.361Z,0.56
2019-01-20T20:05:28.483Z,0.61
2019-01-20T20:10:26.816Z,0.56
2019-01-20T20:15:25.572Z,0.56
2019-01-20T20:20:22.615Z,0.60
2019-01-20T20:25:22.337Z,0.57
2019-01-20T20:30:26.494Z,0.57
2019-01-20T20:35:23.558Z,0.50
2019-01-20T20:40:20.738Z,0.60
2019-01-20T20:45:24.585Z,0.33
2019-01-20T20:50:21.702Z,0.51
2019-01-20T20:55:19.343Z,0.57
2019-01-20T21:00:23.881Z,0.50
2019-01-20T21:05:20.803Z,0.43
2019-01-20T21:10:18.685Z,0.37
2019-01-20T21:15:15.791Z,0.36
2019-01-20T21:20:22.111Z,0.41
2019-01-20T21:25:19.088Z,0.16
2019-01-20T21:30:20.927Z,0.18
2019-01-20T21:35:17.855Z,0.32
2019-01-20T21:40:17.226Z,0.64
2019-01-20T21:45:16.250Z,0.69
2019-01-20T21:50:23.104Z,0.64
2019-01-20T21:55:20.007Z,0.60
2019-01-20T22:00:20.206Z,0.65
2019-01-20T22:05:17.117Z,0.49
2019-01-20T22:10:16.979Z,0.59
2019-01-20T22:15:14.441Z,0.37
2019-01-20T22:20:17.717Z,0.52
2019-01-20T22:25:14.924Z,0.29
2019-01-20T22:30:21.163Z,0.20
2019-01-20T22:35:18.282Z,0.15
2019-01-20T22:40:17.233Z,0.03
2019-01-20T22:45:23.742Z,0.05
2019-01-20T22:50:22.509Z,-0.15
2019-01-20T22:55:19.769Z,-0.20
2019-01-20T23:00:38.921Z,-0.24
2019-01-20T23:05:35.939Z,-0.45
2019-01-20T23:10:32.975Z,-0.33
2019-01-20T23:15:29.895Z,-0.39
2019-01-20T23:20:26.873Z,-0.49
2019-01-20T23:25:23.797Z,-0.56
2019-01-20T23:30:20.848Z,-0.73
2019-01-20T23:35:17.748Z,-0.87
2019-01-20T23:40:15.814Z,-0.79
2019-01-20T23:45:13.179Z,-1.03
2019-01-20T23:50:16.558Z,-0.91
2019-01-20T23:55:13.470Z,-1.00
